Time;durP1;ratioP1;P1;durP2;ratioP2;P2;SDS_P1;SDS_P2;PMS_P1;PMS_P2;Temp;Humidity;BMP_temperature;BMP_pressure;BME280_temperature;BME280_humidity;BME280_pressure;Samples;Min_cycle;Max_cycle;Signal;HPM_P1;HPM_P2
2021/12/10 00:01:17;;;;;;;2.63;2.17;;;;;;;0.84;100.00;98969.25;5002101;28;20670;-55
2021/12/10 00:03:47;;;;;;;5.33;2.77;;;;;;;0.81;100.00;98960.72;4999945;28;20257;-55
2021/12/10 00:06:16;;;;;;;5.87;2.80;;;;;;;0.78;100.00;98955.59;4999931;28;20224;-54
2021/12/10 00:08:48;;;;;;;5.57;2.60;;;;;;;0.73;100.00;98953.88;5000669;28;20202;-55
2021/12/10 00:11:18;;;;;;;4.27;2.40;;;;;;;0.68;100.00;98942.78;4998658;28;20196;-53
2021/12/10 00:13:47;;;;;;;5.23;2.80;;;;;;;0.64;100.00;98943.59;5001768;28;20656;-55
2021/12/10 00:16:14;;;;;;;3.80;2.33;;;;;;;0.58;100.00;98935.91;4999862;28;20218;-55
2021/12/10 00:18:45;;;;;;;4.20;2.40;;;;;;;0.52;100.00;98934.16;4994983;28;20246;-54
2021/12/10 00:21:11;;;;;;;4.37;2.77;;;;;;;0.48;100.00;98927.34;5003293;28;20712;-56
2021/12/10 00:23:37;;;;;;;5.30;2.90;;;;;;;0.45;100.00;98925.59;4999107;28;20210;-53
2021/12/10 00:26:05;;;;;;;3.97;2.50;;;;;;;0.43;100.00;98918.78;5006125;28;20311;-55
2021/12/10 00:28:38;;;;;;;7.97;3.20;;;;;;;0.38;100.00;98911.13;5007269;28;20289;-53
2021/12/10 00:34:04;;;;;;;3.67;2.80;;;;;;;0.33;100.00;98901.72;5001876;28;20215;-54
2021/12/10 00:36:31;;;;;;;3.97;2.47;;;;;;;0.30;100.00;98898.31;4997561;28;20228;-54
2021/12/10 00:38:59;;;;;;;5.77;3.03;;;;;;;0.28;100.00;98888.97;5002029;28;20276;-54
2021/12/10 00:41:25;;;;;;;4.30;2.87;;;;;;;0.25;100.00;98886.38;5008277;28;20279;-54
2021/12/10 00:43:51;;;;;;;4.17;2.40;;;;;;;0.20;100.00;98873.63;5012288;28;20271;-55
2021/12/10 00:46:17;;;;;;;4.23;2.93;;;;;;;0.17;100.00;98870.16;5006054;28;20202;-53
2021/12/10 00:48:42;;;;;;;5.07;2.63;;;;;;;0.12;100.00;98862.50;4993088;28;20203;-55
2021/12/10 00:51:10;;;;;;;4.07;2.40;;;;;;;0.07;100.00;98852.28;5029269;28;20207;-53
2021/12/10 00:53:37;;;;;;;3.63;2.80;;;;;;;0.02;100.00;98843.72;5002506;28;20237;-56
2021/12/10 00:56:04;;;;;;;4.87;2.80;;;;;;;-0.03;100.00;98832.69;5003545;28;20234;-53
2021/12/10 00:58:31;;;;;;;3.50;2.50;;;;;;;-0.07;100.00;98830.94;5004554;28;20218;-53
2021/12/10 01:01:03;;;;;;;3.97;2.50;;;;;;;-0.10;100.00;98829.22;5009356;28;20283;-53
2021/12/10 01:03:39;;;;;;;6.00;3.10;;;;;;;-0.13;100.00;98829.19;5003595;28;20192;-55
2021/12/10 01:06:08;;;;;;;3.33;2.43;;;;;;;-0.15;100.00;98813.06;5008430;28;20592;-53
2021/12/10 01:08:36;;;;;;;4.67;3.07;;;;;;;-0.18;100.00;98811.34;5000478;28;20201;-55
2021/12/10 01:11:26;;;;;;;4.63;2.50;;;;;;;-0.21;100.00;98800.25;4999993;28;20666;-53
2021/12/10 01:13:57;;;;;;;5.77;3.37;;;;;;;-0.22;100.00;98788.38;5007486;28;20252;-55
2021/12/10 01:25:05;;;;;;;5.10;2.77;;;;;;;-0.27;100.00;98774.78;4999042;28;22113;-54
2021/12/10 01:27:35;;;;;;;3.73;2.80;;;;;;;-0.33;100.00;98765.41;5003872;28;20256;-54
2021/12/10 01:30:05;;;;;;;5.27;2.73;;;;;;;-0.36;100.00;98761.13;5006144;28;20196;-54
2021/12/10 01:32:36;;;;;;;5.40;2.83;;;;;;;-0.39;100.00;98760.25;5013557;28;20197;-54
2021/12/10 01:35:05;;;;;;;4.47;2.83;;;;;;;-0.42;100.00;98756.00;5009286;28;20220;-54
2021/12/10 01:37:30;;;;;;;3.50;2.80;;;;;;;-0.45;100.00;98748.34;5011185;28;20212;-53
2021/12/10 01:39:56;;;;;;;5.37;3.40;;;;;;;-0.48;100.00;98749.16;5003384;28;20558;-54
2021/12/10 01:44:54;;;;;;;7.90;3.50;;;;;;;-0.52;100.00;98744.00;5007040;28;20256;-54
2021/12/10 01:47:26;;;;;;;5.83;3.00;;;;;;;-0.54;100.00;98738.09;5023822;28;20737;-54
2021/12/10 01:49:52;;;;;;;4.30;2.70;;;;;;;-0.57;100.00;98731.25;5004464;28;20200;-54
2021/12/10 01:52:18;;;;;;;6.03;3.20;;;;;;;-0.58;100.00;98719.38;5008796;28;20196;-54
2021/12/10 01:54:52;;;;;;;5.77;3.37;;;;;;;-0.58;100.00;98710.94;5003192;28;20676;-54
2021/12/10 01:57:20;;;;;;;5.17;3.00;;;;;;;-0.55;100.00;98705.88;5002233;28;20688;-54
2021/12/10 01:59:47;;;;;;;6.43;3.70;;;;;;;-0.52;100.00;98701.69;5004304;28;20300;-55
2021/12/10 02:02:17;;;;;;;4.80;3.20;;;;;;;-0.49;100.00;98693.22;5003003;28;20692;-55
2021/12/10 02:04:45;;;;;;;6.57;3.10;;;;;;;-0.51;100.00;98689.81;4997408;28;20202;-55
2021/12/10 02:07:18;;;;;;;5.90;3.23;;;;;;;-0.55;100.00;98686.38;5003924;28;20216;-55
2021/12/10 02:09:44;;;;;;;4.57;3.10;;;;;;;-0.57;100.00;98680.44;5002457;28;20801;-54
2021/12/10 02:12:10;;;;;;;4.30;2.93;;;;;;;-0.61;100.00;98681.28;4999178;28;20568;-54
2021/12/10 02:14:38;;;;;;;4.40;3.30;;;;;;;-0.68;100.00;98667.63;5006024;28;20213;-54
2021/12/10 02:17:04;;;;;;;3.50;2.73;;;;;;;-0.75;100.00;98668.41;5004343;28;20217;-56
2021/12/10 02:19:30;;;;;;;3.73;2.60;;;;;;;-0.82;100.00;98664.94;5002992;28;20189;-55
2021/12/10 02:21:58;;;;;;;4.70;2.97;;;;;;;-0.87;100.00;98658.13;5001376;28;20208;-55
2021/12/10 02:24:23;;;;;;;4.67;3.10;;;;;;;-0.89;100.00;98659.78;5013343;28;20234;-55
2021/12/10 02:26:58;;;;;;;5.13;3.30;;;;;;;-0.93;100.00;98658.91;5007166;28;20290;-54
2021/12/10 02:29:27;;;;;;;5.23;3.70;;;;;;;-0.97;100.00;98647.84;5000244;28;20222;-54
2021/12/10 02:31:54;;;;;;;6.60;4.00;;;;;;;-0.99;100.00;98649.53;4992888;28;20642;-54
2021/12/10 02:34:20;;;;;;;5.87;3.83;;;;;;;-1.01;100.00;98642.72;5002794;28;20205;-53
2021/12/10 02:36:45;;;;;;;6.07;3.60;;;;;;;-1.02;100.00;98638.47;5003001;28;20205;-54
2021/12/10 02:39:19;;;;;;;8.00;3.93;;;;;;;-1.04;100.00;98630.84;4999506;28;20299;-54
2021/12/10 02:41:45;;;;;;;7.30;4.10;;;;;;;-1.06;100.00;98627.44;5024515;28;20617;-55
2021/12/10 02:44:14;;;;;;;5.50;4.30;;;;;;;-1.09;100.00;98612.16;4998388;28;20276;-54
2021/12/10 02:46:40;;;;;;;5.33;3.47;;;;;;;-1.14;100.00;98612.13;5000636;28;20213;-55
2021/12/10 02:49:08;;;;;;;5.73;3.33;;;;;;;-1.16;100.00;98603.63;5020407;27;20283;-55
2021/12/10 02:51:35;;;;;;;6.97;3.53;;;;;;;-1.16;100.00;98593.47;5009756;28;20207;-55
2021/12/10 02:54:03;;;;;;;5.00;2.87;;;;;;;-1.16;100.00;98577.41;5023833;28;20189;-54
2021/12/10 02:56:29;;;;;;;7.13;3.50;;;;;;;-1.16;100.00;98570.63;5005231;28;20830;-54
2021/12/10 02:58:58;;;;;;;6.87;3.17;;;;;;;-1.17;100.00;98557.94;5009563;28;20186;-54
2021/12/10 03:01:43;;;;;;;6.37;3.20;;;;;;;-1.19;100.00;98552.81;5000951;28;20794;-54
2021/12/10 03:04:10;;;;;;;4.33;2.80;;;;;;;-1.22;100.00;98542.66;5001325;28;20290;-54
2021/12/10 03:06:44;;;;;;;5.47;2.80;;;;;;;-1.25;100.00;98537.56;4999168;28;20402;-54
2021/12/10 03:09:11;;;;;;;3.40;2.40;;;;;;;-1.30;100.00;98534.97;5018571;28;20613;-54
2021/12/10 03:11:46;;;;;;;5.47;3.43;;;;;;;-1.33;100.00;98523.91;5004707;28;20285;-54
2021/12/10 03:14:12;;;;;;;6.93;3.10;;;;;;;-1.33;100.00;98521.38;5007841;28;20197;-53
2021/12/10 03:16:43;;;;;;;4.63;2.60;;;;;;;-1.30;100.00;98527.34;5008777;28;20217;-53
2021/12/10 03:19:11;;;;;;;5.37;3.33;;;;;;;-1.33;100.00;98531.53;5005490;28;20728;-53
2021/12/10 03:21:44;;;;;;;5.53;3.33;;;;;;;-1.33;100.00;98518.84;5003556;28;20188;-53
2021/12/10 03:24:12;;;;;;;3.60;2.60;;;;;;;-1.35;100.00;98517.97;5004247;28;20684;-53
2021/12/10 03:26:37;;;;;;;5.23;2.60;;;;;;;-1.40;100.00;98507.78;5006162;28;20661;-56
2021/12/10 03:29:03;;;;;;;3.70;2.50;;;;;;;-1.42;100.00;98505.22;5001923;28;20538;-54
2021/12/10 03:31:30;;;;;;;5.30;2.43;;;;;;;-1.43;100.00;98503.53;5031871;28;20449;-55
2021/12/10 03:33:57;;;;;;;4.13;2.50;;;;;;;-1.47;100.00;98499.25;5002844;28;20587;-55
2021/12/10 03:36:23;;;;;;;4.10;3.10;;;;;;;-1.51;100.00;98489.88;5003467;28;20362;-54
2021/12/10 03:38:49;;;;;;;3.37;2.83;;;;;;;-1.52;100.00;98485.69;5008098;28;20355;-55
2021/12/10 03:41:15;;;;;;;4.37;2.70;;;;;;;-1.52;100.00;98484.81;5004165;28;20192;-55
2021/12/10 03:43:42;;;;;;;4.93;3.33;;;;;;;-1.53;100.00;98478.91;5000541;28;20195;-54
2021/12/10 03:46:09;;;;;;;5.43;3.23;;;;;;;-1.52;100.00;98479.75;5002261;28;20595;-54
2021/12/10 03:48:42;;;;;;;4.17;3.23;;;;;;;-1.51;100.00;98481.44;5001117;28;20663;-54
2021/12/10 03:51:14;;;;;;;4.93;2.90;;;;;;;-1.51;100.00;98484.81;5005690;28;20193;-54
2021/12/10 03:53:40;;;;;;;5.43;3.00;;;;;;;-1.51;100.00;98479.75;5013212;28;20184;-55
2021/12/10 03:56:11;;;;;;;3.50;2.70;;;;;;;-1.50;100.00;98481.44;5005379;28;20597;-54
2021/12/10 03:58:37;;;;;;;4.77;3.10;;;;;;;-1.47;100.00;98470.50;5000615;28;20204;-55
2021/12/10 04:01:05;;;;;;;3.90;2.60;;;;;;;-1.47;100.00;98466.25;4995769;28;20310;-55
2021/12/10 04:03:34;;;;;;;4.20;2.80;;;;;;;-1.47;100.00;98465.44;4996946;28;20195;-54
2021/12/10 04:06:00;;;;;;;5.53;2.90;;;;;;;-1.46;100.00;98457.81;5000348;28;20193;-54
2021/12/10 04:08:27;;;;;;;3.67;2.43;;;;;;;-1.47;100.00;98457.81;5001936;28;20187;-54
2021/12/10 04:10:54;;;;;;;4.80;2.67;;;;;;;-1.47;100.00;98447.66;5001487;28;20238;-56
2021/12/10 04:13:20;;;;;;;3.30;2.93;;;;;;;-1.49;100.00;98436.66;5006008;28;20211;-53
2021/12/10 04:15:47;;;;;;;10.10;7.73;;;;;;;-1.52;100.00;98427.31;4997584;28;20215;-56
2021/12/10 04:18:13;;;;;;;10.40;7.40;;;;;;;-1.52;100.00;98417.19;4997851;28;20207;-55
2021/12/10 04:20:41;;;;;;;9.77;7.67;;;;;;;-1.50;100.00;98424.78;5003943;28;20196;-54
2021/12/10 04:23:09;;;;;;;7.80;6.03;;;;;;;-1.48;100.00;98428.19;4995310;28;20190;-54
2021/12/10 04:25:35;;;;;;;7.50;5.00;;;;;;;-1.49;100.00;98422.25;4995528;28;20660;-54
2021/12/10 04:28:06;;;;;;;4.73;3.73;;;;;;;-1.50;100.00;98414.66;5003823;28;20340;-54
2021/12/10 04:30:36;;;;;;;6.83;3.57;;;;;;;-1.52;100.00;98411.25;5001139;28;20918;-55
2021/12/10 04:33:03;;;;;;;4.80;2.70;;;;;;;-1.52;100.00;98396.03;5001616;28;20202;-55
2021/12/10 04:35:29;;;;;;;4.30;2.77;;;;;;;-1.54;100.00;98388.41;4997145;28;20231;-54
2021/12/10 04:37:55;;;;;;;4.63;3.00;;;;;;;-1.56;100.00;98387.53;5000646;28;20211;-54
2021/12/10 04:40:23;;;;;;;5.50;2.80;;;;;;;-1.60;100.00;98386.66;4995510;28;20674;-55
2021/12/10 04:42:50;;;;;;;3.00;2.60;;;;;;;-1.60;100.00;98380.72;4999213;28;20193;-55
2021/12/10 04:45:18;;;;;;;4.00;2.33;;;;;;;-1.61;100.00;98379.88;4995282;28;20202;-55
2021/12/10 04:47:44;;;;;;;4.07;2.50;;;;;;;-1.63;100.00;98373.94;5001184;28;20211;-55
2021/12/10 04:50:11;;;;;;;4.23;2.57;;;;;;;-1.63;100.00;98375.63;4997496;28;21070;-55
2021/12/10 04:52:37;;;;;;;3.77;2.70;;;;;;;-1.66;100.00;98375.63;4994887;28;20604;-55
2021/12/10 04:55:08;;;;;;;4.37;2.43;;;;;;;-1.67;100.00;98369.69;5005314;28;20213;-55
2021/12/10 04:57:34;;;;;;;4.43;2.60;;;;;;;-1.69;100.00;98366.28;4997521;28;20204;-58
2021/12/10 05:00:00;;;;;;;5.17;2.60;;;;;;;-1.71;100.00;98362.88;4997153;28;20234;-54
2021/12/10 05:02:25;;;;;;;2.53;2.20;;;;;;;-1.73;100.00;98352.72;4994229;28;20201;-54
2021/12/10 05:04:56;;;;;;;4.33;2.03;;;;;;;-1.72;100.00;98339.22;4996281;28;20196;-54
2021/12/10 05:07:23;;;;;;;5.30;2.20;;;;;;;-1.73;100.00;98332.44;4997376;28;20218;-54
2021/12/10 05:09:49;;;;;;;4.80;2.27;;;;;;;-1.73;100.00;98318.88;4997183;28;20576;-55
2021/12/10 05:12:14;;;;;;;3.97;2.27;;;;;;;-1.71;100.00;98319.75;4994220;28;20193;-54
2021/12/10 05:14:40;;;;;;;5.77;2.40;;;;;;;-1.71;100.00;98315.53;4999448;28;20221;-54
2021/12/10 05:17:08;;;;;;;1.93;1.70;;;;;;;-1.70;100.00;98309.63;4997401;28;20215;-55
2021/12/10 05:19:35;;;;;;;7.10;2.00;;;;;;;-1.68;100.00;98304.56;4993545;28;20227;-54
2021/12/10 05:22:03;;;;;;;3.13;1.70;;;;;;;-1.67;100.00;98288.50;4998125;28;20607;-54
2021/12/10 05:24:29;;;;;;;3.90;2.00;;;;;;;-1.66;100.00;98284.31;5000512;28;20223;-55
2021/12/10 05:26:57;;;;;;;6.00;2.20;;;;;;;-1.66;100.00;98281.78;5010059;28;20927;-55
2021/12/10 05:29:22;;;;;;;3.57;1.87;;;;;;;-1.67;100.00;98275.84;5010993;28;20191;-54
2021/12/10 05:31:49;;;;;;;2.60;1.73;;;;;;;-1.67;100.00;98278.38;5003470;28;20207;-54
2021/12/10 05:34:17;;;;;;;3.00;2.30;;;;;;;-1.70;100.00;98271.59;5002649;28;20188;-54
2021/12/10 05:36:43;;;;;;;3.33;1.93;;;;;;;-1.69;100.00;98272.44;4993909;28;20680;-54
2021/12/10 05:39:11;;;;;;;3.63;2.00;;;;;;;-1.69;100.00;98267.34;4994874;28;20190;-54
2021/12/10 05:41:37;;;;;;;3.40;2.43;;;;;;;-1.70;100.00;98266.53;4996420;28;20247;-54
2021/12/10 05:44:04;;;;;;;5.20;2.23;;;;;;;-1.69;100.00;98258.06;4999432;28;20276;-54
2021/12/10 05:46:31;;;;;;;4.17;2.00;;;;;;;-1.67;100.00;98255.53;4991680;28;20197;-54
2021/12/10 05:48:57;;;;;;;3.23;2.00;;;;;;;-1.66;100.00;98251.34;4989643;28;20192;-54
2021/12/10 05:51:23;;;;;;;3.50;1.87;;;;;;;-1.68;100.00;98243.69;4995847;28;20186;-54
2021/12/10 05:53:49;;;;;;;5.53;2.27;;;;;;;-1.65;100.00;98227.63;4998723;28;20284;-54
2021/12/10 05:56:14;;;;;;;3.43;1.90;;;;;;;-1.58;100.00;98219.25;5007538;28;20204;-54
2021/12/10 05:58:40;;;;;;;4.07;1.97;;;;;;;-1.50;100.00;98207.44;5021541;28;20190;-54
2021/12/10 06:01:09;;;;;;;3.97;2.07;;;;;;;-1.48;100.00;98194.78;5000228;28;20369;-54
2021/12/10 06:03:36;;;;;;;4.83;1.70;;;;;;;-1.35;100.00;98190.59;4996740;28;20256;-54
2021/12/10 06:06:03;;;;;;;5.00;1.80;;;;;;;-1.28;100.00;98179.66;4997760;28;20680;-54
2021/12/10 06:08:29;;;;;;;4.03;1.67;;;;;;;-1.18;100.00;98171.25;4994469;28;20316;-54
2021/12/10 06:10:56;;;;;;;3.27;1.57;;;;;;;-1.14;100.00;98167.03;5048848;28;20188;-54
2021/12/10 06:13:22;;;;;;;4.20;1.80;;;;;;;-1.09;100.00;98160.28;5022644;28;20304;-55
2021/12/10 06:15:48;;;;;;;3.97;1.70;;;;;;;-1.03;100.00;98155.22;5008560;28;20259;-54
2021/12/10 06:18:19;;;;;;;5.90;2.20;;;;;;;-0.99;100.00;98146.78;5032493;28;20208;-54
2021/12/10 06:20:49;;;;;;;4.17;2.40;;;;;;;-0.96;100.00;98143.41;5023952;28;20184;-54
2021/12/10 06:23:15;;;;;;;4.90;2.23;;;;;;;-0.92;100.00;98143.41;5082602;28;20187;-54
2021/12/10 06:25:42;;;;;;;5.10;2.23;;;;;;;-0.88;100.00;98134.09;5015827;28;20190;-54
2021/12/10 06:28:08;;;;;;;3.87;1.77;;;;;;;-0.87;100.00;98129.88;5016032;28;20273;-54
2021/12/10 06:30:37;;;;;;;4.13;1.83;;;;;;;-0.88;100.00;98131.56;5022087;28;20636;-54
2021/12/10 06:33:06;;;;;;;2.47;1.63;;;;;;;-0.88;100.00;98128.19;5027842;28;20282;-54
2021/12/10 06:35:33;;;;;;;7.90;4.13;;;;;;;-0.93;100.00;98131.56;5059369;28;20621;-54
2021/12/10 06:37:58;;;;;;;7.43;4.67;;;;;;;-0.95;100.00;98129.88;4995781;28;20261;-54
2021/12/10 06:40:30;;;;;;;6.73;3.63;;;;;;;-0.97;100.00;98113.78;5056804;28;20177;-54
2021/12/10 06:42:56;;;;;;;4.47;2.53;;;;;;;-1.01;100.00;98119.69;5003344;28;20186;-54
2021/12/10 06:45:28;;;;;;;6.17;2.67;;;;;;;-1.05;100.00;98110.34;5001543;28;20517;-55
2021/12/10 06:47:58;;;;;;;2.83;1.67;;;;;;;-1.10;100.00;98112.88;5004634;28;20215;-54
2021/12/10 06:50:25;;;;;;;3.70;1.90;;;;;;;-1.13;100.00;98107.78;5000336;28;20192;-55
2021/12/10 06:52:52;;;;;;;3.27;1.87;;;;;;;-1.17;100.00;98109.47;5003850;28;20212;-54
2021/12/10 06:55:18;;;;;;;2.20;1.53;;;;;;;-1.20;100.00;98112.00;5015261;28;20214;-54
2021/12/10 06:57:44;;;;;;;3.50;1.73;;;;;;;-1.23;100.00;98099.31;5030703;28;20574;-54
2021/12/10 07:00:36;;;;;;;3.93;2.17;;;;;;;-1.22;100.00;98090.88;5079521;28;20182;-54
2021/12/10 07:03:02;;;;;;;3.67;2.00;;;;;;;-1.19;100.00;98097.63;5045611;28;20502;-54
2021/12/10 07:05:27;;;;;;;2.87;1.60;;;;;;;-1.20;100.00;98096.78;5014578;28;20189;-54
2021/12/10 07:07:53;;;;;;;2.67;1.90;;;;;;;-1.21;100.00;98089.16;5053523;28;20238;-55
2021/12/10 07:10:18;;;;;;;3.13;2.17;;;;;;;-1.20;100.00;98101.03;5002554;28;20264;-54
2021/12/10 07:12:45;;;;;;;4.40;2.77;;;;;;;-1.20;100.00;98104.38;5064271;28;20183;-55
2021/12/10 07:15:13;;;;;;;6.17;4.60;;;;;;;-1.20;100.00;98096.78;5100266;28;20200;-55
2021/12/10 07:17:42;;;;;;;12.97;8.43;;;;;;;-1.21;100.00;98089.16;5016623;28;20203;-55
2021/12/10 07:20:09;;;;;;;10.80;7.93;;;;;;;-1.21;100.00;98084.09;5009946;28;20187;-55
2021/12/10 07:22:35;;;;;;;12.53;8.50;;;;;;;-1.21;100.00;98092.53;5009412;28;20192;-55
2021/12/10 07:25:03;;;;;;;10.83;6.20;;;;;;;-1.21;100.00;98086.63;5011259;28;20191;-55
2021/12/10 07:27:28;;;;;;;5.27;4.30;;;;;;;-1.18;100.00;98079.03;5005402;28;20229;-55
2021/12/10 07:29:54;;;;;;;7.60;3.93;;;;;;;-1.15;100.00;98089.19;4999302;28;20187;-55
2021/12/10 07:32:19;;;;;;;4.03;2.97;;;;;;;-1.12;100.00;98082.44;5007013;28;20188;-55
2021/12/10 07:34:45;;;;;;;4.63;3.20;;;;;;;-1.08;100.00;98076.53;5010943;28;20298;-55
2021/12/10 07:37:10;;;;;;;3.63;2.53;;;;;;;-1.00;100.00;98084.16;5011366;28;20329;-54
2021/12/10 07:39:37;;;;;;;5.67;2.80;;;;;;;-0.93;100.00;98074.84;5008451;28;20186;-54
2021/12/10 07:42:07;;;;;;;4.23;2.90;;;;;;;-0.85;100.00;98077.41;5024829;28;20197;-54
2021/12/10 07:44:33;;;;;;;4.70;2.30;;;;;;;-0.77;100.00;98075.72;5029197;28;20200;-54
2021/12/10 07:47:01;;;;;;;3.70;2.80;;;;;;;-0.66;100.00;98076.56;5009158;28;20201;-54
2021/12/10 07:49:30;;;;;;;5.30;2.37;;;;;;;-0.58;100.00;98074.03;5014657;28;20557;-54
2021/12/10 07:51:56;;;;;;;2.67;2.37;;;;;;;-0.48;100.00;98062.16;5008925;28;20830;-54
2021/12/10 07:54:22;;;;;;;5.97;3.60;;;;;;;-0.39;100.00;98077.44;5018867;28;20269;-54
2021/12/10 07:56:48;;;;;;;6.40;4.47;;;;;;;-0.29;100.00;98073.16;5060042;28;20207;-54
2021/12/10 07:59:14;;;;;;;7.03;4.50;;;;;;;-0.13;100.00;98080.78;5019121;28;20266;-54
2021/12/10 08:01:40;;;;;;;6.63;4.23;;;;;;;0.05;100.00;98078.19;5014298;28;20529;-53
2021/12/10 08:04:08;;;;;;;4.77;4.33;;;;;;;0.25;100.00;98087.47;5021556;28;20200;-54
2021/12/10 08:06:35;;;;;;;5.67;4.07;;;;;;;0.44;100.00;98081.50;4998846;28;20402;-55
2021/12/10 08:09:04;;;;;;;4.90;4.20;;;;;;;0.64;100.00;98085.63;5014480;28;20184;-55
2021/12/10 08:11:30;;;;;;;5.70;4.73;;;;;;;0.80;100.00;98076.25;5064398;28;20697;-55
2021/12/10 08:13:56;;;;;;;4.47;4.03;;;;;;;0.95;100.00;98077.00;5013924;28;20315;-54
2021/12/10 08:16:23;;;;;;;4.07;3.67;;;;;;;1.08;100.00;98093.91;5000596;28;20222;-54
2021/12/10 08:18:53;;;;;;;4.80;4.10;;;;;;;1.20;100.00;98086.19;5013202;28;20179;-54
2021/12/10 08:21:19;;;;;;;4.57;3.73;;;;;;;1.30;100.00;98092.06;5011637;28;20196;-54
2021/12/10 08:23:45;;;;;;;4.40;4.00;;;;;;;1.37;100.00;98101.34;5086412;28;20199;-54
2021/12/10 08:26:12;;;;;;;5.47;3.90;;;;;;;1.46;100.00;98110.63;5006524;28;20173;-54
2021/12/10 08:28:38;;;;;;;5.70;3.93;;;;;;;1.52;100.00;98117.38;5002809;28;20207;-54
2021/12/10 08:31:05;;;;;;;4.07;2.83;;;;;;;1.55;100.00;98096.13;5101952;27;20192;-54
2021/12/10 08:33:31;;;;;;;3.60;2.07;;;;;;;1.56;100.00;98108.84;5024097;28;20259;-54
2021/12/10 08:36:02;;;;;;;4.63;2.33;;;;;;;1.55;100.00;98101.25;5001417;28;20239;-53
2021/12/10 08:38:28;;;;;;;5.37;3.10;;;;;;;1.56;100.00;98111.41;5013290;28;20688;-54
2021/12/10 08:40:58;;;;;;;4.13;2.70;;;;;;;1.59;100.00;98110.56;5023789;28;20705;-54
2021/12/10 08:43:24;;;;;;;6.43;2.77;;;;;;;1.59;100.00;98110.56;5012160;28;20185;-54
2021/12/10 08:45:52;;;;;;;5.67;3.03;;;;;;;1.60;100.00;98102.88;5010460;28;20236;-54
2021/12/10 08:48:20;;;;;;;4.97;2.97;;;;;;;1.63;100.00;98104.56;5020436;28;20246;-54
2021/12/10 08:50:49;;;;;;;6.43;3.20;;;;;;;1.66;100.00;98102.00;5011704;28;20208;-54
2021/12/10 08:53:15;;;;;;;4.63;2.80;;;;;;;1.70;100.00;98098.56;5016137;28;20191;-54
2021/12/10 08:55:46;;;;;;;3.93;3.10;;;;;;;1.75;100.00;98101.06;5006556;28;20209;-53
2021/12/10 08:58:13;;;;;;;3.93;2.60;;;;;;;1.80;100.00;98094.22;5019093;28;20208;-55
2021/12/10 09:00:41;;;;;;;7.03;4.13;;;;;;;1.84;100.00;98106.06;5021629;28;20579;-53
2021/12/10 09:03:07;;;;;;;6.77;3.60;;;;;;;1.86;100.00;98088.22;5116477;27;20211;-53
2021/12/10 09:05:33;;;;;;;4.43;3.00;;;;;;;1.91;100.00;98089.00;5027674;28;20192;-55
2021/12/10 09:07:59;;;;;;;5.93;4.20;;;;;;;2.00;100.00;98080.44;5014329;28;20259;-55
2021/12/10 09:10:30;;;;;;;7.73;4.00;;;;;;;2.06;100.00;98068.44;5018196;28;20733;-55
2021/12/10 09:12:55;;;;;;;5.57;3.70;;;;;;;2.16;100.00;98069.19;5020429;28;20199;-55
2021/12/10 09:15:23;;;;;;;5.10;3.53;;;;;;;2.25;100.00;98061.47;5028978;28;20902;-55
2021/12/10 09:17:50;;;;;;;5.60;2.57;;;;;;;2.34;100.00;98052.00;5011390;28;20286;-54
2021/12/10 09:20:23;;;;;;;2.93;2.50;;;;;;;2.41;100.00;98051.06;5013693;28;20192;-54
2021/12/10 09:22:49;;;;;;;5.50;2.57;;;;;;;2.48;100.00;98042.47;5010782;28;20183;-54
2021/12/10 09:25:16;;;;;;;3.00;2.10;;;;;;;2.57;100.00;98042.34;5020629;27;20184;-54
2021/12/10 09:27:42;;;;;;;4.23;2.33;;;;;;;2.68;100.00;98038.81;5011003;28;20258;-55
2021/12/10 09:30:10;;;;;;;4.53;2.50;;;;;;;2.76;100.00;98038.72;5022867;28;20596;-54
2021/12/10 09:32:36;;;;;;;3.00;2.20;;;;;;;2.84;100.00;98034.31;5021341;28;20671;-54
2021/12/10 09:35:05;;;;;;;3.33;2.13;;;;;;;2.92;100.00;98031.66;5022060;28;20394;-54
2021/12/10 09:37:35;;;;;;;3.70;2.07;;;;;;;3.00;100.00;98037.53;5007178;28;20218;-53
2021/12/10 09:40:02;;;;;;;3.00;1.93;;;;;;;3.03;100.00;98035.75;5027766;28;20610;-54
2021/12/10 09:42:27;;;;;;;4.57;2.37;;;;;;;3.07;100.00;98030.63;5030653;28;20234;-55
2021/12/10 09:44:55;;;;;;;4.80;2.37;;;;;;;3.06;100.00;98027.19;5022041;28;20215;-55
2021/12/10 09:47:21;;;;;;;2.90;2.50;;;;;;;3.05;100.00;98028.06;5003948;28;20300;-55
2021/12/10 09:49:50;;;;;;;3.10;2.17;;;;;;;3.08;100.00;98019.53;5014481;28;20298;-55
2021/12/10 09:52:20;;;;;;;2.03;1.70;;;;;;;3.08;100.00;98020.34;5005218;28;20196;-53
2021/12/10 09:54:46;;;;;;;2.70;1.93;;;;;;;3.13;100.00;98020.28;5016051;28;20618;-55
2021/12/10 09:57:11;;;;;;;3.67;1.63;;;;;;;3.17;100.00;98014.25;5006555;28;20227;-55
2021/12/10 09:59:40;;;;;;;2.13;1.60;;;;;;;3.22;100.00;98019.28;5079713;27;20653;-54
2021/12/10 10:02:06;;;;;;;1.73;1.33;;;;;;;3.25;100.00;98016.69;5023499;28;20202;-54
2021/12/10 10:04:37;;;;;;;2.33;1.57;;;;;;;3.28;100.00;98004.69;5019551;28;20208;-55
2021/12/10 10:07:10;;;;;;;1.40;1.10;;;;;;;3.33;100.00;98004.63;5007988;28;20230;-55
2021/12/10 10:09:37;;;;;;;2.23;1.50;;;;;;;3.37;100.00;97996.03;5005678;28;20196;-54
2021/12/10 10:12:29;;;;;;;1.83;1.73;;;;;;;3.40;100.00;97998.53;5033209;28;20197;-54
2021/12/10 10:14:55;;;;;;;1.40;1.13;;;;;;;3.43;100.00;97995.94;5000711;28;20221;-55
2021/12/10 10:17:22;;;;;;;1.80;1.00;;;;;;;3.48;100.00;97988.19;5010225;28;20215;-55
2021/12/10 10:19:48;;;;;;;1.70;1.10;;;;;;;3.49;100.00;97975.38;5004363;28;20615;-55
2021/12/10 10:22:18;;;;;;;2.17;1.40;;;;;;;3.53;100.00;97976.19;5004406;28;20667;-55
2021/12/10 10:24:43;;;;;;;1.67;1.20;;;;;;;3.56;100.00;97970.97;5023099;28;20191;-55
2021/12/10 10:27:17;;;;;;;1.20;1.00;;;;;;;3.55;100.00;97960.78;4990450;28;20270;-54
2021/12/10 10:29:50;;;;;;;2.43;0.90;;;;;;;3.58;100.00;97961.56;5018865;28;20196;-54
2021/12/10 10:32:19;;;;;;;1.20;1.00;;;;;;;3.63;100.00;97966.63;5015011;28;20421;-53
2021/12/10 10:34:53;;;;;;;1.87;0.80;;;;;;;3.70;100.00;97952.84;5013622;28;20215;-53
2021/12/10 10:37:18;;;;;;;2.10;1.30;;;;;;;3.78;100.00;97950.97;5031255;28;20264;-54
2021/12/10 10:39:44;;;;;;;2.10;1.20;;;;;;;3.84;100.00;97949.16;5021174;28;20200;-54
2021/12/10 10:42:15;;;;;;;1.33;1.23;;;;;;;3.88;100.00;97953.38;5034218;28;20184;-54
2021/12/10 10:44:42;;;;;;;1.93;1.43;;;;;;;3.90;100.00;97944.78;5015976;28;20197;-53
2021/12/10 10:47:08;;;;;;;2.80;2.20;;;;;;;3.90;100.00;97949.91;5017136;28;20578;-53
2021/12/10 10:49:42;;;;;;;4.40;2.87;;;;;;;3.83;100.00;97945.78;5010346;28;20195;-54
2021/12/10 10:52:29;;;;;;;4.80;3.30;;;;;;;3.74;100.00;97941.69;5011017;28;20194;-54
2021/12/10 10:55:01;;;;;;;5.37;3.50;;;;;;;3.49;100.00;97942.13;5014495;28;20211;-55
2021/12/10 10:57:32;;;;;;;3.07;2.60;;;;;;;3.44;100.00;97945.63;5045730;28;20327;-54
2021/12/10 11:00:11;;;;;;;3.93;3.03;;;;;;;3.39;100.00;97938.06;5018961;28;20275;-54
2021/12/10 11:02:50;;;;;;;3.93;3.40;;;;;;;3.34;100.00;97942.41;5017497;28;20214;-54
2021/12/10 11:05:16;;;;;;;3.80;2.87;;;;;;;3.37;100.00;97936.41;5009436;28;20188;-54
2021/12/10 11:07:51;;;;;;;4.87;2.90;;;;;;;3.37;100.00;97933.84;5014248;28;20213;-55
2021/12/10 11:10:39;;;;;;;3.17;1.90;;;;;;;3.43;100.00;97936.28;4999377;28;20232;-53
2021/12/10 11:13:20;;;;;;;2.73;1.80;;;;;;;3.48;100.00;97934.50;5040954;28;20200;-55
2021/12/10 11:16:06;;;;;;;2.63;2.10;;;;;;;3.54;100.00;97929.28;5015612;28;20209;-54
2021/12/10 11:18:47;;;;;;;3.40;2.27;;;;;;;3.59;100.00;97932.56;4995826;28;20192;-55
2021/12/10 11:21:14;;;;;;;2.37;1.80;;;;;;;3.58;100.00;97930.88;5001990;28;20205;-53
2021/12/10 11:23:42;;;;;;;2.97;1.77;;;;;;;3.59;100.00;97930.00;5036520;28;20185;-54
2021/12/10 11:26:10;;;;;;;2.03;1.57;;;;;;;3.60;100.00;97931.69;5001317;28;20192;-53
2021/12/10 11:28:40;;;;;;;4.57;2.00;;;;;;;3.61;100.00;97922.31;5007627;28;20191;-54
2021/12/10 11:31:15;;;;;;;2.63;1.70;;;;;;;3.60;100.00;97931.69;5014241;28;20243;-53
2021/12/10 11:33:49;;;;;;;2.73;1.70;;;;;;;3.68;100.00;97935.84;5015588;28;20185;-53
2021/12/10 11:36:18;;;;;;;3.40;2.20;;;;;;;3.76;100.00;97927.16;5017289;28;20663;-53
2021/12/10 11:38:46;;;;;;;3.83;2.03;;;;;;;3.85;100.00;97931.25;4996953;28;20576;-53
2021/12/10 11:41:18;;;;;;;3.20;2.10;;;;;;;3.95;100.00;97932.75;5011884;28;20183;-53
2021/12/10 11:46:47;;;;;;;2.30;1.93;;;;;;;3.98;100.00;97931.81;5017475;28;20739;-54
2021/12/10 11:49:28;;;;;;;2.10;1.80;;;;;;;3.96;100.00;97926.75;5012032;28;20618;-53
2021/12/10 11:52:07;;;;;;;2.33;1.70;;;;;;;3.95;100.00;97927.63;5014479;28;20895;-54